Aktualne dane pomiarowe

Uwaga, wersja testowa! Automatyczne pobieranie danych za pomocą narzędzi lub skryptów to umożliwiających jest zabronione.

Dane meteo z obszaru Polski uzyskane na podstawie depesz SYNOP pobieranych co godzinę z NWS. Najedź myszką na symbol przedstawiony w tabeli, aby uzyskać informacje co do jego znaczenia. Prosimy pamiętać, że to testowa wersja strony, która jeszcze nie jest ukończona. Stworzono również jest krótki FAQ dotyczący korzystania z tej podstrony Anomalie temperatury w chwili obecnej odniesione są do okresu referencyjnego 1951-2016. Okres ten będzie później zmieniony na 1981-2010. Kliknij ikonę aby pobrać plik CSV. Kliknij ikonę aby wygenerować mapę synoptyczną dla danego terminu.

Wybierz Datę:    

        

Bielsko-Biała (12600)

Dane terminowe dla wybranej stacji. Kliknij datę, aby otrzymać dane z tego terminu dla wszystkich stacji.

TemperaturaZachmurzenieWiatrCiśnienieOpadyPogoda
 Data t td wb tx tn tg rh  Nt Nl Cl Cm Ch ws wd g1 g2 wx mslp ppp ch 24h 12h t ww ww w1 w2  
2019-06-30 23:00:00 26.3 10.8 17.1--- 3830.0wx-6wx121261014.0 968.8 -0.6---------
2019-06-30 22:00:00 26.6 11.1 17.3--- 3830.0wx-6wx111161014.3 969.1 -0.2---------
2019-06-30 21:00:00 26.8 10.9 17.3--- 3730.0wx-6wx-1161014.1 969.0 -0.1---------
2019-06-30 20:00:00 27.1 10.3 17.2--- 3540.0wx-6wx11--1014.5 969.4 0.0---------
2019-06-30 19:00:00 27.8 10.0 17.3--- 3350.0wx-6wx-1161014.3 969.3 -0.3---------
2019-06-30 18:00:00 28.7 10.4 17.8 33.1 22.2- 3250.0wx-4wx9941013.9 969.1 -0.9- 0.012------
2019-06-30 17:00:00 30.1 9.6 18.0--- 2850.0wx-4wx--41014.0 969.4 -1.2---------
2019-06-30 16:00:00 31.6 9.2 18.4--- 2550.0wx-4wx-941014.0 969.6 -1.5---------
2019-06-30 15:00:00 31.9 8.8 18.3--- 2450.0wx-5wx-951014.4 970.0 -1.6---------
2019-06-30 14:00:00 32.7 9.5 18.9--- 2450.0wx-4wx--41014.9 970.6 -1.5---------
2019-06-30 13:00:00 32.2 11.4 19.6--- 2850.0wx-3wx--31015.5 971.1 -1.5---------
2019-06-30 12:00:00 31.4 11.7 19.4--- 3050.0wx-2wx--21016.2 971.6 -1.5- 0.06------
2019-06-30 11:00:00 30.9 10.3 18.6--- 2850.0wx-3wx--31016.8 972.1 -1.1---------
2019-06-30 10:00:00 28.8 10.5 17.9--- 3250.0wx-2wx--21017.6 972.6 -0.6---------
2019-06-30 09:00:00 27.5 11.5 17.9--- 3740.0wx-3wx--31018.3 973.1 -0.1---------
2019-06-30 08:00:00 26.2 11.1 17.2--- 3940.0wx-2wx--21018.6 973.2 0.2---------
2019-06-30 07:00:00 24.9 11.1 16.6--- 4240.0wx-3wx--31018.8 973.2 0.3---------
2019-06-30 06:00:00 22.2 12.4 16.1 24.6 13.7 12 5440.0wx-1wx--11019.3 973.2 0.5- 0.012----- 13.5
2019-06-30 05:00:00 18.6 11.9 14.4--- 6550.0wx-1wx--11019.6 973.0 0.0---------
2019-06-30 04:00:00 16.1 11.7 13.2--- 7550.0wx-2wx---1019.9 972.9 -0.6---------
2019-06-30 03:00:00 14.6 10.4 11.9--- 7650.0wx-2wx--21020.0 972.7 -0.9---------
2019-06-30 02:00:00 14.5 10.5 11.9--- 7740.0wx-2wx--21020.3 973.0 -0.6---------
2019-06-30 01:00:00 14.1 10.5 11.7--- 7930.0wx-2wx--21020.9 973.5 -0.4---------
2019-06-30 00:00:00 14.9 10.7 12.2--- 7630.0wx-2wx---1020.9 973.6 -0.1---------
2019-06-29 23:00:00 15.3 10.7 12.4--- 7430.0wx-2wx---1020.8 973.6 0.1---------
2019-06-29 22:00:00 16.3 10.2 12.5--- 6730.0wx-1wx---1020.9 973.9 0.5---------
2019-06-29 21:00:00 18.5 10.3 13.5--- 5930.0wx-wx2wx---1020.4 973.7 0.5---------
2019-06-29 20:00:00 18.8 10.4 13.7--- 5830.0wx-wx2wx--21020.1 973.5 0.2---------
2019-06-29 19:00:00 19.3 11.1 14.3--- 5950.0wx-wx3wx--31019.9 973.4 0.0---------
2019-06-29 18:00:00 24.6 9.3 15.7 25.9 18.6- 3850.0wx-wx3wx--31018.9 973.2 -0.6- 0.012------
2019-06-29 17:00:00 25.1 8.6 15.6--- 3550.0wx-wx3wx---1018.9 973.3 -1.0---------
2019-06-29 16:00:00 25.6 9.4 16.2--- 3650.0wx-wx4wx---1018.9 973.4 -1.2---------
2019-06-29 15:00:00 25.6 9.8 16.3--- 3750.0wx-wx3wx--31019.3 973.8 -1.2---------
2019-06-29 14:00:00 24.9 9.6 16.0--- 3850.0wxwxwxwx4wx---1020.0 974.3 -1.2---------
2019-06-29 13:00:00 24.1 9.3 15.5--- 3950.0wxwxwxwx3wx---1020.4 974.6 -1.1---------
2019-06-29 12:00:00 23.8 9.0 15.2--- 3950.0wxwxwxwx4wx--41020.9 975.0 -0.6- 0.06------
2019-06-29 11:00:00 23.3 9.3 15.2--- 4150.0wxwxwxwx3wx--31021.5 975.5 -0.2---------
2019-06-29 10:00:00 22.9 7.0 14.0--- 3650.0wxwxwxwx2wx--21021.8 975.7 -0.3---------
2019-06-29 09:00:00 21.9 7.7 13.9--- 4050.0wxwxwxwx2wx--21021.8 975.6 -0.6---------
2019-06-29 08:00:00 20.8 7.1 13.1--- 4150.0wxwxwxwx1wx--11022.1 975.7 -0.3---------
2019-06-29 07:00:00 19.9 5.5 12.1--- 3950.0wxwxwxwx1wx--11022.6 976.0 -0.2---------
2019-06-29 06:00:00 18.7 8.6 12.8 19.4 15.5 15 5240.0wx-wxwx1wx--11023.0 976.2 0.4- 0.012----- 7.4
2019-06-29 05:00:00 17.1 10.7 13.1--- 6640.0wxwxwxwxwx1wx--11023.0 976.0 0.2---------
2019-06-29 04:00:00 15.6 12.0 13.2--- 7940.0wxwxwxwx0---01023.5 976.2 0.7---------
2019-06-29 03:00:00 16.0 9.6 12.1--- 6650.0wxwxwx1wx--11023.0 975.8 0.3---------
2019-06-29 02:00:00 16.6 9.3 12.2--- 6250.0wxwxwx1wx--11022.9 975.8 0.4---------
2019-06-29 01:00:00 17.2 9.1 12.4--- 5950.0wxwxwx2wx--21022.5 975.5 0.1---------
2019-06-29 00:00:00 17.2 9.4 12.5--- 6050.0wxwxwxwx3wx--31022.5 975.5 0.3- 0.06------
1.6 ms

 

Print Friendly, PDF & Email